Time;durP1;ratioP1;P1;durP2;ratioP2;P2;SDS_P1;SDS_P2;PMS_P1;PMS_P2;Temp;Humidity;BMP_temperature;BMP_pressure;BME280_temperature;BME280_humidity;BME280_pressure;Samples;Min_cycle;Max_cycle;Signal;HPM_P1;HPM_P2
2022/09/10 00:02:03;;;;;;;4.53;1.70;;;;;;;17.27;53.85;99941.94;10205467;29;20326;-78
2022/09/10 00:07:25;;;;;;;4.23;1.40;;;;;;;17.16;53.63;99934.47;10206642;29;20247;-79
2022/09/10 00:12:47;;;;;;;4.47;1.90;;;;;;;17.90;51.61;99935.19;10199526;29;20223;-79
2022/09/10 00:18:10;;;;;;;3.53;1.40;;;;;;;17.54;52.56;99939.75;10192728;29;20244;-78
2022/09/10 00:23:32;;;;;;;5.63;1.40;;;;;;;17.34;53.03;99937.50;10189739;29;20294;-78
2022/09/10 00:28:59;;;;;;;5.13;1.60;;;;;;;17.06;53.55;99941.66;10191435;29;20223;-79
2022/09/10 00:34:21;;;;;;;3.37;1.33;;;;;;;18.00;51.13;99939.34;10187977;29;20255;-79
2022/09/10 00:39:44;;;;;;;4.17;1.30;;;;;;;17.29;52.73;99933.00;10202080;29;20228;-79
2022/09/10 00:45:06;;;;;;;3.03;1.27;;;;;;;17.95;51.13;99936.88;10184886;29;20263;-79
2022/09/10 00:50:30;;;;;;;3.73;1.87;;;;;;;17.94;51.49;99929.53;10197753;29;20200;-79
2022/09/10 00:55:54;;;;;;;4.60;1.37;;;;;;;17.17;53.70;99924.72;10182922;29;20216;-79
2022/09/10 01:01:18;;;;;;;4.63;1.57;;;;;;;17.06;53.76;99935.16;10186186;29;20298;-80
2022/09/10 01:06:41;;;;;;;2.53;1.60;;;;;;;16.80;54.37;99934.00;10204081;29;20251;-79
2022/09/10 01:12:46;;;;;;;2.87;1.20;;;;;;;17.40;52.64;99922.50;10186437;29;20235;-79
2022/09/10 01:18:22;;;;;;;4.27;1.23;;;;;;;17.55;52.30;99934.88;10183332;29;20314;-79
2022/09/10 01:23:47;;;;;;;4.23;1.33;;;;;;;17.28;52.13;99935.03;10197819;29;20306;-79
2022/09/10 01:29:17;;;;;;;5.50;1.67;;;;;;;17.46;51.99;99948.59;10184933;29;20235;-79
2022/09/10 01:34:46;;;;;;;4.47;1.40;;;;;;;17.63;51.62;99943.13;10184600;29;20616;-78
2022/09/10 01:40:09;;;;;;;3.97;1.47;;;;;;;17.29;52.66;99944.38;10196340;29;20212;-78
2022/09/10 01:46:07;;;;;;;2.03;1.20;;;;;;;17.61;51.39;99939.84;10161151;29;20254;-79
2022/09/10 01:51:35;;;;;;;6.60;1.97;;;;;;;17.11;52.32;99934.81;10175466;29;20208;-78
2022/09/10 01:57:13;;;;;;;4.40;1.67;;;;;;;16.85;53.46;99930.84;10183648;29;20628;-78
2022/09/10 02:02:40;;;;;;;3.57;1.30;;;;;;;16.37;54.44;99931.84;10206624;29;20259;-79
2022/09/10 02:08:12;;;;;;;4.07;1.30;;;;;;;16.78;52.98;99936.44;10181252;29;20268;-78
2022/09/10 02:13:35;;;;;;;4.80;1.40;;;;;;;16.70;53.79;99929.00;10191231;29;20200;-79
2022/09/10 02:19:14;;;;;;;5.40;1.47;;;;;;;16.81;52.92;99935.66;10199306;29;20519;-79
2022/09/10 02:24:37;;;;;;;1.97;1.53;;;;;;;17.10;52.64;99942.53;10186974;29;20219;-79
2022/09/10 02:30:00;;;;;;;3.33;1.20;;;;;;;15.97;55.39;99950.31;10197763;29;20212;-79
2022/09/10 02:35:22;;;;;;;3.77;1.40;;;;;;;16.15;55.27;99954.22;10209392;29;20236;-79
2022/09/10 02:40:47;;;;;;;4.00;1.33;;;;;;;16.40;55.46;99942.44;10217967;29;20232;-78
2022/09/10 02:46:11;;;;;;;3.13;1.30;;;;;;;16.98;52.70;99942.00;10215511;29;20231;-79
2022/09/10 02:51:33;;;;;;;1.77;0.90;;;;;;;16.66;54.06;99933.88;10206883;29;20231;-79
2022/09/10 02:56:55;;;;;;;1.43;0.70;;;;;;;16.88;53.08;99940.63;10206512;29;20485;-79
2022/09/10 03:02:19;;;;;;;2.60;1.37;;;;;;;17.24;53.06;99944.72;10209730;29;20263;-78
2022/09/10 03:07:42;;;;;;;1.50;0.80;;;;;;;17.03;52.83;99936.78;10211431;29;20239;-78
2022/09/10 03:13:05;;;;;;;3.10;0.87;;;;;;;16.87;53.42;99931.28;10169112;29;20267;-79
2022/09/10 03:18:29;;;;;;;1.60;1.07;;;;;;;16.27;55.32;99941.88;10190579;29;20263;-79
2022/09/10 03:23:52;;;;;;;4.47;1.45;;;;;;;17.27;52.06;99935.41;10193505;29;20584;-78
2022/09/10 03:29:15;;;;;;;5.67;1.90;;;;;;;16.99;53.24;99935.91;10203013;29;20199;-79
2022/09/10 03:34:38;;;;;;;1.40;1.30;;;;;;;16.84;53.41;99922.69;10198243;29;20208;-79
2022/09/10 03:40:00;;;;;;;4.60;1.88;;;;;;;17.15;52.67;99930.81;10208753;29;20224;-80
2022/09/10 03:45:23;;;;;;;5.75;2.20;;;;;;;17.18;52.87;99932.06;10207294;29;20247;-79
2022/09/10 03:50:46;;;;;;;4.00;2.57;;;;;;;16.79;54.03;99937.28;10188492;29;20209;-79
2022/09/10 03:56:09;;;;;;;4.40;3.17;;;;;;;16.84;53.59;99937.72;10199929;29;20263;-79
2022/09/10 04:01:32;;;;;;;4.13;3.10;;;;;;;17.56;52.01;99943.03;10204155;29;20284;-79
2022/09/10 04:06:54;;;;;;;3.93;3.53;;;;;;;17.45;52.86;99933.53;10198491;29;20250;-80
2022/09/10 04:12:16;;;;;;;4.57;3.63;;;;;;;16.66;54.90;99933.03;10188965;29;20212;-79
2022/09/10 04:17:39;;;;;;;6.33;4.13;;;;;;;17.44;52.04;99929.06;10180311;29;20279;-79
2022/09/10 04:23:02;;;;;;;6.53;4.17;;;;;;;17.19;53.35;99937.34;10178783;29;20203;-78
2022/09/10 04:28:24;;;;;;;6.93;3.03;;;;;;;17.66;53.04;99940.69;10192742;29;20208;-79
2022/09/10 04:33:47;;;;;;;6.77;3.43;;;;;;;16.84;54.96;99940.56;10190254;29;20204;-78
2022/09/10 04:39:09;;;;;;;4.97;3.10;;;;;;;16.91;54.61;99940.69;10185266;29;20634;-78
2022/09/10 04:44:32;;;;;;;4.00;3.37;;;;;;;16.98;54.24;99945.66;10207626;29;20221;-79
2022/09/10 04:49:55;;;;;;;3.17;2.73;;;;;;;17.10;53.36;99944.56;10204788;29;20216;-78
2022/09/10 04:55:38;;;;;;;5.43;3.43;;;;;;;16.11;57.00;99950.53;10188462;29;20612;-79
2022/09/10 05:01:01;;;;;;;3.97;3.57;;;;;;;16.78;55.18;99952.72;10170075;29;20208;-78
2022/09/10 05:06:26;;;;;;;5.47;4.43;;;;;;;17.08;55.03;99949.81;10191003;29;20310;-79
2022/09/10 05:11:49;;;;;;;5.07;4.00;;;;;;;17.13;55.55;99955.19;10181848;29;20605;-78
2022/09/10 05:17:11;;;;;;;6.80;5.07;;;;;;;17.11;54.66;99963.28;10196400;29;20684;-78
2022/09/10 05:22:34;;;;;;;7.23;4.10;;;;;;;16.67;55.73;99955.41;10179778;29;20601;-78
2022/09/10 05:27:57;;;;;;;5.73;4.93;;;;;;;17.18;53.92;99957.69;10202021;29;20251;-79
2022/09/10 05:33:19;;;;;;;7.70;5.10;;;;;;;17.19;53.85;99956.47;10196794;29;20908;-78
2022/09/10 05:38:44;;;;;;;4.93;4.40;;;;;;;17.28;53.91;99960.66;10186364;29;20279;-78
2022/09/10 05:44:09;;;;;;;4.60;4.07;;;;;;;16.99;55.12;99970.06;10184740;29;20318;-78
2022/09/10 05:49:32;;;;;;;8.60;5.20;;;;;;;17.08;54.77;99969.75;10200416;29;20657;-78
2022/09/10 05:54:55;;;;;;;8.57;4.80;;;;;;;17.25;53.77;99977.69;10183820;29;20228;-78
2022/09/10 06:00:17;;;;;;;4.90;4.47;;;;;;;17.01;55.91;99978.22;10193106;29;20203;-78
2022/09/10 06:05:40;;;;;;;9.00;5.40;;;;;;;17.22;55.64;99984.16;10205554;29;20313;-79
2022/09/10 06:11:07;;;;;;;10.73;5.43;;;;;;;16.56;57.67;99989.41;10189876;29;20231;-79
2022/09/10 06:16:30;;;;;;;6.63;5.60;;;;;;;16.93;56.99;99995.22;10195468;29;20583;-80
2022/09/10 06:21:52;;;;;;;6.73;4.60;;;;;;;16.47;58.56;99996.59;10166798;29;20308;-81
2022/09/10 06:27:17;;;;;;;6.27;5.33;;;;;;;17.09;56.97;99988.50;10204229;29;20691;-80
2022/09/10 06:32:40;;;;;;;7.50;4.83;;;;;;;17.34;55.33;100000.16;10184563;29;20204;-79
2022/09/10 06:38:03;;;;;;;7.97;5.33;;;;;;;16.75;56.93;100004.72;10217615;29;20252;-79
2022/09/10 06:43:26;;;;;;;6.50;5.28;;;;;;;17.47;55.91;100002.34;10205369;29;20291;-80
2022/09/10 06:49:05;;;;;;;5.77;5.20;;;;;;;17.67;54.85;100000.16;10182489;29;20231;-80
2022/09/10 06:54:27;;;;;;;6.82;4.60;;;;;;;17.61;54.87;100002.53;10190647;29;20694;-80
2022/09/10 07:00:02;;;;;;;6.80;5.23;;;;;;;17.71;55.12;100008.72;10193452;29;20236;-80
2022/09/10 07:05:28;;;;;;;7.83;4.57;;;;;;;17.66;55.14;100009.09;10185493;29;20315;-79
2022/09/10 07:10:50;;;;;;;6.40;5.10;;;;;;;17.60;56.01;100017.97;10170351;29;20609;-80
2022/09/10 07:16:17;;;;;;;4.97;4.27;;;;;;;17.81;55.29;100016.56;10179516;29;20761;-80
2022/09/10 07:21:39;;;;;;;7.07;5.37;;;;;;;17.11;58.08;100017.41;10182623;29;20250;-81
2022/09/10 07:27:05;;;;;;;9.23;6.13;;;;;;;17.06;58.55;100023.44;10189683;29;20243;-80
2022/09/10 07:32:28;;;;;;;7.77;5.30;;;;;;;16.85;58.39;100033.31;10177731;29;20235;-79
2022/09/10 07:37:54;;;;;;;9.17;5.47;;;;;;;17.43;56.77;100041.41;10201196;29;20286;-79
2022/09/10 07:43:17;;;;;;;7.80;5.97;;;;;;;17.73;55.88;100040.50;10182051;29;20537;-80
2022/09/10 07:48:40;;;;;;;8.80;5.73;;;;;;;16.72;58.77;100039.63;10212174;29;20258;-79
2022/09/10 07:54:03;;;;;;;9.63;6.37;;;;;;;18.06;56.03;100039.63;10189302;29;20247;-78
2022/09/10 07:59:29;;;;;;;9.00;6.20;;;;;;;17.61;56.93;100036.72;10211068;29;20545;-79
2022/09/10 08:04:54;;;;;;;11.57;5.17;;;;;;;17.61;57.92;100036.72;10192393;29;21041;-79
2022/09/10 08:10:17;;;;;;;5.20;4.73;;;;;;;18.23;55.93;100033.22;10211663;29;20243;-79
2022/09/10 08:15:43;;;;;;;6.57;4.63;;;;;;;17.98;55.05;100044.41;10200886;29;20258;-79
2022/09/10 08:21:07;;;;;;;6.30;4.73;;;;;;;18.43;55.39;100048.91;10214722;29;20191;-79
2022/09/10 08:26:32;;;;;;;9.63;5.87;;;;;;;18.46;55.29;100053.00;10179288;29;20413;-78
2022/09/10 08:31:54;;;;;;;6.47;5.13;;;;;;;17.95;56.28;100050.94;10203253;29;20258;-78
2022/09/10 08:37:17;;;;;;;7.97;5.53;;;;;;;19.09;54.33;100052.59;10199072;29;20207;-79
2022/09/10 08:42:47;;;;;;;5.97;4.33;;;;;;;18.37;55.44;100058.22;10197127;29;20216;-79
2022/09/10 08:48:22;;;;;;;5.78;4.82;;;;;;;18.80;54.31;100050.78;10184176;29;20279;-79
2022/09/10 08:53:54;;;;;;;4.67;4.00;;;;;;;18.17;55.05;100058.47;10195980;29;20208;-79
2022/09/10 08:59:21;;;;;;;5.15;4.68;;;;;;;18.78;55.33;100058.91;10195822;29;20331;-79
2022/09/10 09:04:49;;;;;;;5.53;4.35;;;;;;;19.69;52.49;100041.41;10183029;29;20583;-78
2022/09/10 09:10:24;;;;;;;5.22;4.00;;;;;;;18.92;53.97;100056.97;10195007;29;20553;-82
2022/09/10 09:15:55;;;;;;;4.85;4.05;;;;;;;18.81;54.45;100047.53;10206406;29;20224;-79
2022/09/10 09:21:38;;;;;;;5.33;4.67;;;;;;;18.53;54.87;100048.16;10199221;29;20672;-79
2022/09/10 09:27:10;;;;;;;6.10;4.97;;;;;;;18.79;54.56;100049.97;10192488;29;20231;-80
2022/09/10 09:32:36;;;;;;;7.23;5.03;;;;;;;18.87;54.67;100045.94;10203625;29;20283;-80
2022/09/10 09:38:26;;;;;;;7.57;5.57;;;;;;;19.06;54.38;100046.88;10178930;29;20203;-81
2022/09/10 09:44:16;;;;;;;8.77;4.13;;;;;;;18.20;55.35;100051.97;10184806;29;20306;-80
2022/09/10 09:49:38;;;;;;;5.63;4.60;;;;;;;18.72;54.71;100055.66;10206330;29;20227;-84
2022/09/10 09:55:05;;;;;;;4.43;4.00;;;;;;;18.66;55.15;100051.50;10194481;29;20223;-84
2022/09/10 10:00:35;;;;;;;5.53;4.60;;;;;;;18.83;54.90;100050.81;10204485;29;20203;-77
2022/09/10 10:06:08;;;;;;;7.13;4.97;;;;;;;17.90;57.13;100056.97;10191613;29;20251;-79
2022/09/10 10:11:39;;;;;;;5.03;4.50;;;;;;;18.85;52.43;100039.81;10209292;29;20693;-80
2022/09/10 10:17:02;;;;;;;6.65;4.90;;;;;;;17.97;55.36;100043.59;10194096;29;20290;-86
2022/09/10 10:22:25;;;;;;;5.90;5.17;;;;;;;18.82;53.89;100032.03;10162666;29;20680;-84
2022/09/10 10:27:50;;;;;;;6.30;5.05;;;;;;;18.80;53.59;100031.63;10189184;29;20310;-83
2022/09/10 10:33:18;;;;;;;7.27;5.53;;;;;;;18.60;53.39;100019.69;10208317;29;20488;-81
2022/09/10 10:39:12;;;;;;;8.27;5.60;;;;;;;18.35;55.14;100037.84;10206817;29;20192;-80
2022/09/10 10:44:43;;;;;;;6.87;5.93;;;;;;;18.57;55.39;100025.38;10187001;29;20212;-80
2022/09/10 10:50:17;;;;;;;7.57;6.37;;;;;;;17.55;58.64;100026.88;10209358;29;20212;-80
2022/09/10 10:55:59;;;;;;;8.57;6.80;;;;;;;17.09;59.81;100025.50;10199845;29;20247;-81
2022/09/10 11:01:34;;;;;;;7.20;5.57;;;;;;;17.55;58.96;100035.44;10221841;29;20573;-81
2022/09/10 11:07:06;;;;;;;9.97;6.17;;;;;;;18.08;57.98;100025.78;10207046;29;20636;-80
2022/09/10 11:12:32;;;;;;;6.27;4.97;;;;;;;17.12;59.83;100033.28;10200187;29;20246;-80
2022/09/10 11:18:12;;;;;;;5.20;4.70;;;;;;;17.03;60.54;100027.06;10189978;29;20235;-80
2022/09/10 11:23:54;;;;;;;6.00;5.30;;;;;;;17.14;60.61;100034.53;10195176;29;20196;-78
2022/09/10 11:29:33;;;;;;;7.43;4.77;;;;;;;17.40;59.40;100042.16;10176911;29;20707;-78
2022/09/10 11:34:58;;;;;;;4.43;4.03;;;;;;;18.46;55.75;100033.03;10204032;29;20310;-80
2022/09/10 11:40:51;;;;;;;5.27;4.80;;;;;;;18.57;54.64;100033.94;10206710;29;20680;-80
2022/09/10 11:46:24;;;;;;;4.37;3.90;;;;;;;18.87;55.29;100020.25;10187611;29;20699;-79
2022/09/10 11:51:46;;;;;;;5.23;3.90;;;;;;;17.63;57.19;100025.75;10205917;29;20279;-80
2022/09/10 11:57:11;;;;;;;4.75;4.20;;;;;;;17.75;59.60;100013.25;10196765;29;20481;-79
2022/09/10 12:02:46;;;;;;;4.20;3.80;;;;;;;17.38;61.20;100021.78;10203723;29;20291;-78
2022/09/10 12:08:39;;;;;;;4.63;3.43;;;;;;;19.00;55.48;100026.47;10196248;29;20315;-79
2022/09/10 12:14:15;;;;;;;5.60;4.43;;;;;;;17.71;59.88;100034.38;10191901;29;20259;-79
2022/09/10 12:19:45;;;;;;;5.17;4.70;;;;;;;19.32;55.52;100026.56;10174349;29;20341;-80
2022/09/10 12:25:17;;;;;;;5.30;4.80;;;;;;;18.92;55.45;100019.84;10195604;29;20244;-79
2022/09/10 12:30:39;;;;;;;6.33;5.10;;;;;;;18.99;55.21;100016.25;10190792;29;20255;-80
2022/09/10 12:36:02;;;;;;;6.47;5.87;;;;;;;20.00;54.14;100014.06;10195104;29;20235;-80
2022/09/10 12:41:26;;;;;;;7.40;5.53;;;;;;;19.18;56.02;100007.34;10198841;29;20223;-80
2022/09/10 12:47:10;;;;;;;8.18;6.65;;;;;;;18.09;59.75;100011.13;10182619;29;20342;-80
2022/09/10 12:52:49;;;;;;;7.27;6.57;;;;;;;19.44;54.89;100013.94;10195064;29;20220;-79
2022/09/10 12:58:12;;;;;;;9.20;8.10;;;;;;;19.61;54.57;100016.88;10191593;29;20629;-80
2022/09/10 13:03:34;;;;;;;10.73;9.47;;;;;;;19.44;54.36;100017.63;10193118;29;20235;-81
2022/09/10 13:08:57;;;;;;;11.30;9.80;;;;;;;19.07;55.87;100017.09;10185200;29;20332;-81
2022/09/10 13:14:22;;;;;;;12.27;11.07;;;;;;;18.98;56.24;100009.72;10180318;29;20263;-81
2022/09/10 13:19:47;;;;;;;13.82;11.45;;;;;;;18.68;57.24;100021.34;10181849;29;20232;-79
2022/09/10 13:25:33;;;;;;;12.93;11.47;;;;;;;17.89;59.24;100019.09;10185548;29;20557;-79
2022/09/10 13:31:09;;;;;;;12.60;10.57;;;;;;;18.30;58.02;100016.22;10199600;29;20235;-79
2022/09/10 13:37:04;;;;;;;13.33;10.73;;;;;;;18.96;56.63;100009.28;10204354;29;20251;-79
2022/09/10 13:42:42;;;;;;;13.43;11.50;;;;;;;19.67;53.24;100006.69;10183144;29;20602;-79
2022/09/10 13:48:13;;;;;;;15.67;13.57;;;;;;;19.82;54.05;100009.56;10197543;29;20298;-79
2022/09/10 13:53:40;;;;;;;18.07;14.57;;;;;;;20.12;52.91;100012.84;10166012;29;20469;-79
2022/09/10 13:59:03;;;;;;;14.83;13.40;;;;;;;18.62;58.05;100016.41;10200925;29;20247;-80
2022/09/10 14:04:37;;;;;;;14.77;13.33;;;;;;;18.04;60.24;99996.41;10179353;29;20562;-79
2022/09/10 14:10:01;;;;;;;12.20;10.90;;;;;;;18.48;58.42;99993.50;10199656;29;20255;-79
2022/09/10 14:15:32;;;;;;;12.97;10.83;;;;;;;18.61;58.35;100000.53;10174955;29;20251;-79
2022/09/10 14:20:55;;;;;;;11.13;10.03;;;;;;;19.70;54.20;100003.00;10205374;29;20652;-89
2022/09/10 14:26:24;;;;;;;15.47;12.03;;;;;;;19.82;54.02;99995.25;10218303;29;20247;-78
2022/09/10 14:31:48;;;;;;;13.70;11.20;;;;;;;19.02;55.65;99987.69;10206927;29;20604;-81
2022/09/10 14:37:25;;;;;;;12.83;11.63;;;;;;;19.08;55.96;99993.03;10201729;29;20266;-83
2022/09/10 14:42:48;;;;;;;13.80;12.37;;;;;;;19.12;56.38;99973.88;10198539;29;20227;-80
2022/09/10 14:48:26;;;;;;;15.67;13.03;;;;;;;19.53;55.07;99980.88;10174197;29;20579;-81
2022/09/10 14:53:51;;;;;;;14.70;13.15;;;;;;;20.52;52.47;99987.91;10196633;29;20311;-81
2022/09/10 14:59:35;;;;;;;14.68;13.00;;;;;;;19.43;55.51;99986.59;10192822;29;20302;-82
2022/09/10 15:04:57;;;;;;;11.25;10.02;;;;;;;18.82;55.90;99986.34;10182974;29;20274;-81
2022/09/10 15:10:19;;;;;;;12.57;10.83;;;;;;;20.13;53.41;99997.31;10191400;29;20334;-81
2022/09/10 15:15:42;;;;;;;12.47;10.97;;;;;;;19.88;53.43;99999.38;10179937;29;20837;-81
2022/09/10 15:21:06;;;;;;;13.13;11.13;;;;;;;20.65;52.05;100009.13;10191664;29;20330;-83
2022/09/10 15:26:28;;;;;;;13.25;12.05;;;;;;;20.07;53.21;100016.09;10204366;29;21984;-83
2022/09/10 15:31:50;;;;;;;13.38;12.07;;;;;;;20.31;53.04;100021.03;10204452;29;20616;-82
2022/09/10 15:37:12;;;;;;;15.43;13.93;;;;;;;19.89;54.07;100018.16;10203613;29;20219;-81
2022/09/10 15:42:35;;;;;;;14.07;12.63;;;;;;;19.49;54.87;100025.81;10191011;29;20776;-81
2022/09/10 15:47:57;;;;;;;15.97;14.00;;;;;;;20.17;53.44;100032.47;10204600;29;20628;-83
2022/09/10 15:53:20;;;;;;;17.27;15.47;;;;;;;20.07;54.24;100027.56;10184224;29;20239;-81
2022/09/10 15:58:55;;;;;;;17.20;15.47;;;;;;;20.38;53.62;100020.22;10183453;29;20231;-81
2022/09/10 16:04:18;;;;;;;14.73;11.63;;;;;;;19.92;53.37;100032.44;10187495;29;20235;-81
2022/09/10 16:09:42;;;;;;;12.75;11.52;;;;;;;20.20;53.55;100039.44;10195206;29;20577;-81
2022/09/10 16:15:05;;;;;;;12.80;11.60;;;;;;;20.45;53.10;100046.78;10205841;29;20250;-81
2022/09/10 16:20:27;;;;;;;13.17;11.87;;;;;;;20.49;52.42;100045.97;10193034;29;20582;-81
2022/09/10 16:25:55;;;;;;;11.10;10.13;;;;;;;19.67;54.53;100048.75;10202387;29;20376;-82
2022/09/10 16:31:24;;;;;;;9.25;8.52;;;;;;;19.82;53.01;100052.44;10184061;29;20278;-81
2022/09/10 16:36:47;;;;;;;10.50;9.67;;;;;;;19.69;53.29;100057.75;10181045;29;20243;-81
2022/09/10 16:42:10;;;;;;;13.43;12.18;;;;;;;20.03;53.05;100072.53;10172223;29;20247;-81
2022/09/10 16:47:32;;;;;;;9.53;8.53;;;;;;;19.64;54.37;100064.69;10193373;29;20684;-81
2022/09/10 16:52:54;;;;;;;10.30;9.30;;;;;;;20.28;52.23;100073.41;10195407;29;20227;-80
2022/09/10 16:58:16;;;;;;;10.18;9.18;;;;;;;19.83;53.36;100074.13;10199331;29;20314;-82
2022/09/10 17:03:40;;;;;;;9.63;8.73;;;;;;;20.14;51.97;100093.38;10184825;29;20255;-82
2022/09/10 17:09:02;;;;;;;9.60;8.60;;;;;;;19.67;52.60;100100.22;10189099;29;20302;-80
2022/09/10 17:14:25;;;;;;;10.53;8.93;;;;;;;20.00;51.26;100107.66;10190079;29;20301;-81
2022/09/10 17:19:47;;;;;;;9.77;8.87;;;;;;;20.54;50.48;100120.84;10197902;29;20219;-82
2022/09/10 17:25:11;;;;;;;10.67;9.77;;;;;;;20.39;51.29;100120.00;10160420;29;20599;-80
2022/09/10 17:30:33;;;;;;;9.73;8.83;;;;;;;20.17;51.14;100124.06;10178500;29;20251;-81
2022/09/10 17:35:59;;;;;;;7.90;7.10;;;;;;;20.34;50.97;100133.91;10189533;29;20573;-80
2022/09/10 17:41:22;;;;;;;10.05;9.15;;;;;;;18.75;55.27;100140.47;10177418;29;20309;-80
2022/09/10 17:46:45;;;;;;;9.97;9.17;;;;;;;18.62;55.90;100151.38;10197591;29;20243;-79
2022/09/10 17:52:07;;;;;;;13.80;11.03;;;;;;;18.57;57.08;100150.94;10199381;29;20220;-83
2022/09/10 17:57:29;;;;;;;12.37;11.37;;;;;;;20.08;52.64;100160.81;10181298;29;20294;-81
2022/09/10 18:02:52;;;;;;;10.18;9.23;;;;;;;20.17;51.92;100164.13;10172490;29;20288;-80
2022/09/10 18:08:14;;;;;;;11.30;10.30;;;;;;;19.13;54.48;100172.63;10183426;29;20810;-81
2022/09/10 18:13:37;;;;;;;11.57;10.57;;;;;;;19.87;52.70;100184.47;10153717;29;20256;-81
2022/09/10 18:19:01;;;;;;;12.73;11.53;;;;;;;19.97;52.02;100195.13;10172087;29;20294;-81
2022/09/10 18:24:24;;;;;;;12.30;11.00;;;;;;;19.80;52.68;100206.47;10192711;29;20239;-81
2022/09/10 18:29:46;;;;;;;13.23;12.03;;;;;;;18.72;55.26;100215.53;10178600;29;20259;-80
2022/09/10 18:35:08;;;;;;;14.37;12.97;;;;;;;19.48;53.83;100224.28;10197248;29;20231;-80
2022/09/10 18:40:33;;;;;;;16.55;14.95;;;;;;;19.66;53.13;100236.66;10198752;29;20370;-80
2022/09/10 18:46:01;;;;;;;18.27;15.30;;;;;;;19.68;53.68;100251.38;10197538;29;20227;-80
2022/09/10 18:51:25;;;;;;;18.70;16.80;;;;;;;19.31;55.05;100264.97;10193452;29;20282;-81
2022/09/10 18:56:48;;;;;;;19.30;17.37;;;;;;;19.09;54.92;100268.91;10179741;29;20223;-81
2022/09/10 19:02:14;;;;;;;22.80;20.52;;;;;;;19.72;53.50;100271.41;10196281;29;20224;-81
2022/09/10 19:07:36;;;;;;;17.83;15.97;;;;;;;19.79;52.92;100282.06;10202889;29;20251;-80
2022/09/10 19:12:58;;;;;;;23.07;20.83;;;;;;;20.29;51.43;100304.00;10201812;29;20309;-81
2022/09/10 19:18:20;;;;;;;27.13;24.27;;;;;;;20.08;51.78;100303.88;10185850;29;20318;-81
2022/09/10 19:23:43;;;;;;;22.93;20.70;;;;;;;19.68;53.35;100308.56;10193895;29;20227;-82
2022/09/10 19:29:05;;;;;;;21.30;19.30;;;;;;;19.55;53.63;100310.06;10194736;29;20305;-82
